Time;durP1;ratioP1;P1;durP2;ratioP2;P2;SDS_P1;SDS_P2;PMS_P1;PMS_P2;Temp;Humidity;BMP_temperature;BMP_pressure;BME280_temperature;BME280_humidity;BME280_pressure;Samples;Min_cycle;Max_cycle;Signal;HPM_P1;HPM_P2
2022/10/19 00:02:10;;;;;;;10.87;2.80;;;;;;;12.02;100.00;102074.72;5065929;28;20458;-79
2022/10/19 00:04:38;;;;;;;5.03;1.43;;;;;;;12.05;100.00;102067.94;5064444;28;20462;-80
2022/10/19 00:07:04;;;;;;;5.20;1.57;;;;;;;12.05;100.00;102073.38;5092355;22;20465;-72
2022/10/19 00:09:30;;;;;;;6.90;1.67;;;;;;;12.04;100.00;102071.72;5091486;28;20827;-73
2022/10/19 00:11:57;;;;;;;5.17;1.43;;;;;;;12.07;100.00;102076.63;5091788;28;20985;-71
2022/10/19 00:14:24;;;;;;;9.33;1.90;;;;;;;12.06;100.00;102078.53;5092005;28;20522;-72
2022/10/19 00:16:53;;;;;;;8.90;1.80;;;;;;;12.11;100.00;102075.00;5085590;28;20458;-71
2022/10/19 00:19:22;;;;;;;5.17;1.30;;;;;;;12.12;100.00;102074.69;5073802;28;21030;-71
2022/10/19 00:21:50;;;;;;;5.30;1.40;;;;;;;12.12;100.00;102082.03;5081803;28;20460;-71
2022/10/19 00:24:17;;;;;;;15.20;1.50;;;;;;;12.09;100.00;102077.19;5094334;28;20452;-73
2022/10/19 00:26:44;;;;;;;9.00;2.33;;;;;;;12.07;100.00;102082.06;5087664;28;20465;-71
2022/10/19 00:29:11;;;;;;;5.53;2.03;;;;;;;12.10;100.00;102081.50;5073986;28;20836;-71
2022/10/19 00:31:38;;;;;;;4.40;1.60;;;;;;;12.10;100.00;102074.19;5073557;28;20457;-72
2022/10/19 00:34:04;;;;;;;4.63;1.43;;;;;;;12.15;100.00;102083.41;5073498;28;20491;-71
2022/10/19 00:36:33;;;;;;;4.03;1.33;;;;;;;12.14;100.00;102084.50;5080363;28;20509;-72
2022/10/19 00:39:03;;;;;;;6.67;1.70;;;;;;;12.11;100.00;102091.28;5094121;28;20484;-71
2022/10/19 00:41:32;;;;;;;15.33;1.80;;;;;;;12.11;100.00;102083.94;5081598;28;20492;-72
2022/10/19 00:44:00;;;;;;;8.03;1.57;;;;;;;12.09;100.00;102090.75;5074090;28;20445;-72
2022/10/19 00:46:29;;;;;;;4.73;1.90;;;;;;;12.01;100.00;102085.88;5072936;28;21015;-71
2022/10/19 00:49:01;;;;;;;3.90;1.13;;;;;;;12.01;100.00;102088.59;5075348;28;20503;-72
2022/10/19 00:51:29;;;;;;;4.50;1.57;;;;;;;11.95;100.00;102084.22;5083806;28;20456;-72
2022/10/19 00:53:56;;;;;;;8.87;1.47;;;;;;;12.01;100.00;102077.72;5093669;28;20440;-72
2022/10/19 00:56:24;;;;;;;5.97;1.70;;;;;;;12.05;100.00;102084.25;5082409;28;20464;-73
2022/10/19 00:58:51;;;;;;;4.77;1.50;;;;;;;12.05;100.00;102078.81;5074806;28;20531;-72
2022/10/19 01:01:21;;;;;;;10.70;2.07;;;;;;;12.05;100.00;102084.25;5082435;28;20585;-73
2022/10/19 01:03:48;;;;;;;4.20;1.43;;;;;;;12.07;100.00;102077.44;5091032;28;20453;-72
2022/10/19 01:06:17;;;;;;;4.97;1.47;;;;;;;12.09;100.00;102083.41;5093710;28;20505;-73
2022/10/19 01:08:43;;;;;;;5.50;1.47;;;;;;;12.07;100.00;102076.63;5085817;28;20493;-71
2022/10/19 01:11:22;;;;;;;4.40;1.17;;;;;;;12.11;100.00;102073.06;5073010;28;20461;-72
2022/10/19 01:14:03;;;;;;;4.60;1.17;;;;;;;12.06;100.00;102067.66;5073084;28;20457;-72
2022/10/19 01:16:40;;;;;;;7.23;1.70;;;;;;;12.03;100.00;102070.09;5073464;28;20429;-74
2022/10/19 01:19:26;;;;;;;4.20;1.23;;;;;;;12.02;100.00;102063.88;5074169;28;20489;-74
2022/10/19 01:22:08;;;;;;;3.90;1.07;;;;;;;11.99;100.00;102061.69;5074265;28;20436;-73
2022/10/19 01:24:57;;;;;;;4.80;1.40;;;;;;;11.84;100.00;102062.53;5088324;28;21022;-74
2022/10/19 01:28:00;;;;;;;16.60;2.40;;;;;;;11.87;100.00;102063.91;5093150;28;20964;-73
2022/10/19 01:30:41;;;;;;;3.93;1.30;;;;;;;11.91;100.00;102066.84;5092293;28;20502;-72
2022/10/19 01:33:27;;;;;;;12.10;1.30;;;;;;;11.90;100.00;102060.63;5088764;28;20986;-73
2022/10/19 01:36:05;;;;;;;4.50;1.30;;;;;;;11.96;100.00;102058.72;5073264;28;20433;-73
2022/10/19 01:38:37;;;;;;;4.27;1.60;;;;;;;11.96;100.00;102061.44;5074513;28;20553;-73
2022/10/19 01:41:14;;;;;;;9.90;1.43;;;;;;;11.97;100.00;102061.16;5072397;28;20461;-72
2022/10/19 01:43:46;;;;;;;5.10;1.83;;;;;;;11.95;100.00;102060.59;5072925;28;20464;-72
2022/10/19 01:46:20;;;;;;;3.70;1.13;;;;;;;11.98;100.00;102056.53;5073969;28;20841;-72
2022/10/19 01:48:52;;;;;;;5.73;1.60;;;;;;;11.94;100.00;102056.28;5082116;28;20476;-72
2022/10/19 01:51:22;;;;;;;6.23;1.13;;;;;;;11.99;100.00;102056.25;5097478;28;20424;-72
2022/10/19 01:53:54;;;;;;;10.90;1.77;;;;;;;11.97;100.00;102055.72;5085336;28;20950;-72
2022/10/19 01:56:25;;;;;;;5.63;1.20;;;;;;;11.96;100.00;102059.53;5076766;28;20929;-73
2022/10/19 01:58:54;;;;;;;5.43;1.70;;;;;;;11.98;100.00;102048.41;5078228;28;20489;-72
2022/10/19 02:01:25;;;;;;;4.67;1.37;;;;;;;11.95;100.00;102044.31;5076945;28;20478;-73
2022/10/19 02:03:53;;;;;;;9.10;1.40;;;;;;;11.96;100.00;102054.09;5087510;28;20452;-72
2022/10/19 02:06:22;;;;;;;3.90;1.10;;;;;;;11.91;100.00;102045.97;5097132;28;20436;-75
2022/10/19 02:08:51;;;;;;;4.00;1.37;;;;;;;11.98;100.00;102051.09;5087689;28;20542;-72
2022/10/19 02:11:18;;;;;;;14.83;1.90;;;;;;;11.99;100.00;102047.28;5076279;28;20938;-72
2022/10/19 02:13:48;;;;;;;5.40;1.67;;;;;;;11.97;100.00;102047.59;5088759;28;20475;-72
2022/10/19 02:16:18;;;;;;;6.77;1.77;;;;;;;11.92;100.00;102054.94;5097125;28;20497;-71
2022/10/19 02:18:50;;;;;;;3.63;1.20;;;;;;;11.91;100.00;102048.69;5092486;28;20972;-71
2022/10/19 02:21:18;;;;;;;5.90;1.17;;;;;;;11.83;100.00;102049.25;5095780;28;20471;-73
2022/10/19 02:23:44;;;;;;;4.30;1.40;;;;;;;11.76;100.00;102049.47;5096798;28;20482;-73
2022/10/19 02:26:11;;;;;;;4.80;1.27;;;;;;;11.76;100.00;102059.53;5095360;28;20456;-71
2022/10/19 02:28:38;;;;;;;6.57;1.33;;;;;;;11.77;100.00;102055.72;5096559;28;20464;-71
2022/10/19 02:31:05;;;;;;;7.10;1.50;;;;;;;11.77;100.00;102051.09;5080513;28;20961;-72
2022/10/19 02:33:32;;;;;;;4.80;1.43;;;;;;;11.75;100.00;102056.00;5076463;28;20441;-72
2022/10/19 02:36:00;;;;;;;3.97;0.90;;;;;;;11.83;100.00;102050.03;5077846;28;20465;-73
2022/10/19 02:38:27;;;;;;;8.40;1.40;;;;;;;11.88;100.00;102040.28;5075661;28;20468;-73
2022/10/19 02:41:00;;;;;;;4.00;1.63;;;;;;;11.86;100.00;102046.78;5076088;28;20858;-73
2022/10/19 02:43:28;;;;;;;4.70;1.60;;;;;;;11.91;100.00;102051.41;5075726;28;20417;-74
2022/10/19 02:46:01;;;;;;;5.70;1.83;;;;;;;11.89;100.00;102052.75;5090900;28;20872;-72
2022/10/19 02:48:31;;;;;;;6.23;1.67;;;;;;;11.84;100.00;102051.66;5075783;28;20444;-73
2022/10/19 02:50:58;;;;;;;6.37;1.23;;;;;;;11.90;100.00;102054.38;5075962;28;20479;-73
2022/10/19 02:53:25;;;;;;;4.27;1.30;;;;;;;11.85;100.00;102041.63;5075613;28;20441;-75
2022/10/19 02:55:52;;;;;;;6.13;1.57;;;;;;;11.83;100.00;102050.03;5075555;28;20449;-73
2022/10/19 02:58:19;;;;;;;15.60;1.50;;;;;;;11.86;100.00;102054.09;5075440;28;20461;-70
2022/10/19 03:00:45;;;;;;;5.13;1.50;;;;;;;11.84;100.00;102051.66;5075745;28;20492;-73
2022/10/19 03:03:11;;;;;;;7.23;1.87;;;;;;;11.86;100.00;102048.66;5075356;28;20464;-71
2022/10/19 03:05:38;;;;;;;4.47;1.50;;;;;;;11.84;100.00;102050.84;5075604;28;20449;-72
2022/10/19 03:08:05;;;;;;;8.70;2.10;;;;;;;11.83;100.00;102058.19;5076571;28;20997;-71
2022/10/19 03:10:32;;;;;;;4.77;1.40;;;;;;;11.86;100.00;102059.53;5075540;28;20488;-72
2022/10/19 03:12:59;;;;;;;7.07;1.77;;;;;;;11.89;100.00;102063.63;5075231;28;20839;-71
2022/10/19 03:15:27;;;;;;;6.30;1.87;;;;;;;11.92;100.00;102054.94;5075683;28;20444;-71
2022/10/19 03:17:55;;;;;;;7.30;2.77;;;;;;;11.92;100.00;102063.06;5076980;28;20888;-71
2022/10/19 03:20:21;;;;;;;8.17;2.03;;;;;;;11.88;100.00;102062.81;5074747;28;20510;-72
2022/10/19 03:22:48;;;;;;;8.00;1.43;;;;;;;11.89;100.00;102066.34;5093493;28;20498;-71
2022/10/19 03:25:14;;;;;;;3.93;1.07;;;;;;;11.89;100.00;102069.84;5093781;28;20436;-72
2022/10/19 03:27:42;;;;;;;3.70;1.30;;;;;;;11.82;100.00;102077.41;5076520;28;20962;-71
2022/10/19 03:30:09;;;;;;;4.20;1.17;;;;;;;11.83;100.00;102070.97;5074550;28;20465;-72
2022/10/19 03:32:36;;;;;;;4.33;1.10;;;;;;;11.86;100.00;102076.66;5075237;28;20864;-71
2022/10/19 03:35:02;;;;;;;10.03;1.73;;;;;;;11.85;100.00;102071.47;5074924;28;20950;-71
2022/10/19 03:37:29;;;;;;;7.13;1.30;;;;;;;11.86;100.00;102073.94;5074262;28;20981;-72
2022/10/19 03:39:55;;;;;;;5.37;1.20;;;;;;;11.89;100.00;102074.47;5093351;28;20537;-71
2022/10/19 03:42:21;;;;;;;6.60;1.10;;;;;;;11.91;100.00;102083.16;5095241;28;20510;-72
2022/10/19 03:44:49;;;;;;;4.53;1.27;;;;;;;11.94;100.00;102079.91;5076171;28;20458;-73
2022/10/19 03:47:16;;;;;;;4.07;1.07;;;;;;;11.89;100.00;102080.72;5094828;28;20841;-71
2022/10/19 03:49:42;;;;;;;3.83;1.17;;;;;;;11.84;100.00;102076.09;5092347;28;20483;-71
2022/10/19 03:52:09;;;;;;;4.13;0.93;;;;;;;11.87;100.00;102080.19;5094702;28;21024;-71
2022/10/19 03:54:35;;;;;;;3.30;0.80;;;;;;;11.92;100.00;102073.94;5093203;28;20460;-71
2022/10/19 03:57:02;;;;;;;4.50;0.80;;;;;;;11.91;100.00;102084.00;5094899;28;20460;-71
2022/10/19 03:59:28;;;;;;;3.10;0.60;;;;;;;11.81;100.00;102082.03;5090726;28;20488;-71
2022/10/19 04:01:56;;;;;;;3.80;0.80;;;;;;;11.77;100.00;102083.66;5094988;28;20445;-71
2022/10/19 04:04:22;;;;;;;4.10;0.77;;;;;;;11.77;100.00;102089.09;5077340;28;20856;-71
2022/10/19 04:06:52;;;;;;;3.90;0.80;;;;;;;11.74;100.00;102094.28;5074058;28;20830;-71
2022/10/19 04:09:20;;;;;;;3.53;0.97;;;;;;;11.77;100.00;102089.09;5074781;28;20491;-72
2022/10/19 04:11:48;;;;;;;4.43;1.47;;;;;;;11.80;100.00;102085.84;5074068;28;20962;-70
2022/10/19 04:14:17;;;;;;;6.60;0.97;;;;;;;11.82;100.00;102096.41;5089341;28;20461;-72
2022/10/19 04:16:43;;;;;;;5.83;0.90;;;;;;;11.83;99.70;102098.09;5094310;28;20994;-70
2022/10/19 04:19:14;;;;;;;4.03;1.10;;;;;;;11.80;100.00;102099.41;5090123;28;21001;-70
2022/10/19 04:21:42;;;;;;;5.60;1.93;;;;;;;11.80;99.87;102096.72;5094492;28;20443;-69
2022/10/19 04:24:12;;;;;;;8.00;1.83;;;;;;;11.83;100.00;102101.63;5076998;28;20540;-70
2022/10/19 04:26:40;;;;;;;6.97;1.50;;;;;;;11.85;100.00;102095.91;5074092;28;20845;-71
2022/10/19 04:29:06;;;;;;;4.80;0.63;;;;;;;11.83;100.00;102098.91;5076568;28;20555;-70
2022/10/19 04:31:33;;;;;;;3.63;0.60;;;;;;;11.76;99.98;102098.34;5073928;28;20491;-70
2022/10/19 04:34:00;;;;;;;3.53;0.67;;;;;;;11.83;100.00;102103.53;5073705;28;20457;-71
2022/10/19 04:36:27;;;;;;;4.53;0.80;;;;;;;11.83;100.00;102108.97;5073692;28;20864;-71
2022/10/19 04:38:54;;;;;;;8.20;1.17;;;;;;;11.82;100.00;102108.16;5079308;28;20596;-71
2022/10/19 04:41:21;;;;;;;4.23;0.80;;;;;;;11.81;100.00;102117.34;5091894;28;20898;-72
2022/10/19 04:43:48;;;;;;;3.40;0.50;;;;;;;11.84;99.39;102111.41;5079152;28;20461;-70
2022/10/19 04:46:17;;;;;;;3.30;0.70;;;;;;;11.84;100.00;102121.44;5073390;28;20495;-71
2022/10/19 04:48:44;;;;;;;6.23;1.10;;;;;;;11.86;99.95;102120.09;5089391;28;20585;-71
2022/10/19 04:51:11;;;;;;;4.37;1.57;;;;;;;11.78;99.86;102123.31;5093962;28;20490;-71
2022/10/19 04:53:40;;;;;;;4.30;0.90;;;;;;;11.75;99.66;102123.84;5079761;28;20460;-72
2022/10/19 04:56:11;;;;;;;3.90;0.83;;;;;;;11.74;99.72;102133.09;5073645;28;20563;-71
2022/10/19 04:58:38;;;;;;;4.87;0.90;;;;;;;11.71;99.95;102125.47;5073181;28;20483;-72
2022/10/19 05:01:08;;;;;;;3.40;0.60;;;;;;;11.76;99.89;102130.91;5072779;28;20994;-70
2022/10/19 05:03:34;;;;;;;13.33;1.27;;;;;;;11.69;99.58;102127.66;5075509;28;20500;-71
2022/10/19 05:06:01;;;;;;;6.10;0.80;;;;;;;11.77;99.41;102124.38;5081454;28;20953;-72
2022/10/19 05:08:27;;;;;;;3.10;0.40;;;;;;;11.79;99.16;102135.81;5092476;28;20533;-71
2022/10/19 05:10:59;;;;;;;3.30;0.63;;;;;;;11.76;100.00;102124.66;5093592;28;20432;-70
2022/10/19 05:13:26;;;;;;;4.37;0.67;;;;;;;11.80;100.00;102129.28;5075929;28;20457;-72
2022/10/19 05:15:56;;;;;;;4.70;0.80;;;;;;;11.80;100.00;102134.72;5091288;28;20437;-70
2022/10/19 05:18:23;;;;;;;3.40;0.80;;;;;;;11.81;100.00;102138.25;5092316;28;20457;-71
2022/10/19 05:20:49;;;;;;;5.30;0.90;;;;;;;11.81;100.00;102140.94;5093572;28;20487;-70
2022/10/19 05:23:16;;;;;;;4.17;0.70;;;;;;;11.86;100.00;102144.53;5077690;28;20514;-70
2022/10/19 05:25:42;;;;;;;3.97;0.83;;;;;;;11.85;100.00;102147.50;5075313;28;20465;-70
2022/10/19 05:28:10;;;;;;;7.57;1.03;;;;;;;11.84;100.00;102149.41;5073364;28;20445;-70
2022/10/19 05:30:37;;;;;;;11.30;1.97;;;;;;;11.79;99.32;102148.56;5072419;28;20477;-70
2022/10/19 05:33:04;;;;;;;4.70;0.97;;;;;;;11.70;100.00;102152.91;5073238;28;20934;-70
2022/10/19 05:35:30;;;;;;;5.47;0.83;;;;;;;11.66;100.00;102152.63;5083100;28;20510;-71
2022/10/19 05:37:56;;;;;;;4.07;1.00;;;;;;;11.69;100.00;102152.09;5093348;28;20436;-70
2022/10/19 05:40:23;;;;;;;5.10;0.87;;;;;;;11.71;99.80;102149.91;5092437;28;20849;-70
2022/10/19 05:42:49;;;;;;;7.07;0.73;;;;;;;11.70;100.00;102142.06;5092981;28;20933;-70
2022/10/19 05:45:17;;;;;;;5.83;0.90;;;;;;;11.65;100.00;102151.00;5083816;28;20457;-70
2022/10/19 05:47:43;;;;;;;4.37;0.90;;;;;;;11.65;100.00;102140.16;5073001;28;20446;-69
2022/10/19 05:50:10;;;;;;;3.77;0.93;;;;;;;11.65;100.00;102140.16;5082260;28;20476;-70
2022/10/19 05:52:36;;;;;;;3.27;0.67;;;;;;;11.63;100.00;102150.44;5091654;28;20441;-72
2022/10/19 05:55:03;;;;;;;4.87;0.90;;;;;;;11.61;100.00;102155.34;5072912;28;20523;-72
2022/10/19 05:57:31;;;;;;;3.10;0.60;;;;;;;11.60;100.00;102148.28;5073007;28;20445;-70
2022/10/19 05:59:58;;;;;;;10.63;1.23;;;;;;;11.64;100.00;102154.78;5086312;23;20496;-70
2022/10/19 06:02:25;;;;;;;14.03;0.83;;;;;;;11.63;100.00;102158.59;5072695;28;20520;-69
2022/10/19 06:04:52;;;;;;;5.10;1.00;;;;;;;11.61;100.00;102161.56;5071304;28;20958;-72
2022/10/19 06:07:18;;;;;;;4.57;0.87;;;;;;;11.67;100.00;102164.28;5072758;28;20449;-72
2022/10/19 06:09:45;;;;;;;3.17;0.60;;;;;;;11.65;100.00;102161.03;5067292;28;20512;-71
2022/10/19 06:12:11;;;;;;;3.70;0.80;;;;;;;11.67;100.00;102167.00;5052839;28;20442;-69
2022/10/19 06:14:38;;;;;;;3.13;0.53;;;;;;;11.69;100.00;102176.53;5052002;28;20458;-69
2022/10/19 06:17:05;;;;;;;3.30;0.70;;;;;;;11.73;100.00;102177.63;5051579;28;20469;-68
2022/10/19 06:19:33;;;;;;;4.03;0.80;;;;;;;11.73;100.00;102174.06;5051631;28;20465;-69
2022/10/19 06:21:59;;;;;;;8.10;1.07;;;;;;;11.76;100.00;102176.25;5052460;28;20486;-69
2022/10/19 06:24:26;;;;;;;4.47;0.73;;;;;;;11.81;100.00;102171.63;5051250;28;20458;-69
2022/10/19 06:26:52;;;;;;;10.23;1.13;;;;;;;11.86;100.00;102170.84;5049698;28;20455;-67
2022/10/19 06:29:18;;;;;;;5.93;1.17;;;;;;;11.83;100.00;102174.94;5050581;28;20462;-69
2022/10/19 06:31:45;;;;;;;12.30;1.17;;;;;;;11.87;100.00;102180.66;5051537;28;20542;-68
2022/10/19 06:34:12;;;;;;;4.17;1.30;;;;;;;11.83;100.00;102183.09;5056233;28;20438;-68
2022/10/19 06:36:39;;;;;;;4.70;0.63;;;;;;;11.79;100.00;102183.88;5055785;28;20473;-70
2022/10/19 06:39:06;;;;;;;4.73;0.80;;;;;;;11.82;100.00;102176.03;5053780;28;20466;-68
2022/10/19 06:41:33;;;;;;;7.47;1.00;;;;;;;11.87;100.00;102175.22;5042378;28;20490;-69
2022/10/19 06:43:59;;;;;;;4.10;0.87;;;;;;;11.88;100.00;102182.28;5043514;28;20490;-71
2022/10/19 06:46:27;;;;;;;7.80;1.03;;;;;;;11.83;100.00;102180.38;5056015;28;20472;-69
2022/10/19 06:48:55;;;;;;;7.33;1.50;;;;;;;11.76;100.00;102179.78;5054696;28;20874;-67
2022/10/19 06:51:23;;;;;;;4.13;0.87;;;;;;;11.73;100.00;102191.19;5054632;28;20824;-68
2022/10/19 06:53:51;;;;;;;3.23;0.70;;;;;;;11.86;100.00;102185.28;5055616;28;20944;-69
2022/10/19 06:56:18;;;;;;;3.73;0.97;;;;;;;11.88;100.00;102185.00;5055218;28;20508;-68
2022/10/19 06:58:44;;;;;;;3.67;1.03;;;;;;;11.92;100.00;102190.69;5055540;28;21001;-68
2022/10/19 07:01:12;;;;;;;5.23;1.43;;;;;;;11.97;100.00;102185.28;5054153;28;20503;-68
2022/10/19 07:03:39;;;;;;;3.33;0.70;;;;;;;12.00;100.00;102201.03;5055992;28;20451;-67
2022/10/19 07:06:07;;;;;;;4.13;0.70;;;;;;;12.01;100.00;102184.44;5054104;28;20485;-68
2022/10/19 07:08:35;;;;;;;4.73;0.90;;;;;;;12.00;100.00;102182.84;5055651;28;20447;-68
2022/10/19 07:11:06;;;;;;;6.07;1.20;;;;;;;12.02;100.00;102185.25;5054668;28;20539;-68
2022/10/19 07:13:33;;;;;;;3.40;0.67;;;;;;;12.12;100.00;102183.34;5055640;28;20426;-67
2022/10/19 07:16:02;;;;;;;4.40;1.13;;;;;;;12.04;100.00;102185.78;5055111;28;20454;-67
2022/10/19 07:18:29;;;;;;;8.03;1.20;;;;;;;12.08;100.00;102192.31;5055468;28;20474;-67
2022/10/19 07:20:56;;;;;;;4.30;1.03;;;;;;;12.14;100.00;102202.13;5054393;28;20497;-68
2022/10/19 07:23:24;;;;;;;9.93;1.00;;;;;;;12.15;100.00;102194.78;5055433;28;20508;-67
2022/10/19 07:25:52;;;;;;;7.77;1.07;;;;;;;12.17;100.00;102198.84;5054732;28;20459;-67
2022/10/19 07:28:20;;;;;;;5.20;1.20;;;;;;;12.25;100.00;102209.16;5055000;28;20477;-67
2022/10/19 07:30:47;;;;;;;4.77;0.70;;;;;;;12.33;100.00;102211.34;5054066;28;20524;-68
2022/10/19 07:33:13;;;;;;;3.50;0.87;;;;;;;12.38;99.50;102216.75;5053280;28;20516;-67
2022/10/19 07:35:40;;;;;;;3.20;0.70;;;;;;;12.41;99.61;102220.03;5054078;28;20508;-68
2022/10/19 07:38:06;;;;;;;11.80;1.00;;;;;;;12.34;99.02;102212.97;5054149;28;20959;-68
2022/10/19 07:40:32;;;;;;;4.60;0.80;;;;;;;12.37;99.78;102222.47;5053650;28;20554;-69
2022/10/19 07:42:59;;;;;;;4.20;0.57;;;;;;;12.41;99.33;102218.13;5054126;28;20866;-70
2022/10/19 07:45:27;;;;;;;4.80;0.97;;;;;;;12.47;98.67;102222.47;5053409;28;20453;-74
2022/10/19 07:47:53;;;;;;;3.70;1.00;;;;;;;12.48;97.73;102231.44;5053737;28;20466;-71
2022/10/19 07:50:21;;;;;;;3.50;0.70;;;;;;;12.57;97.29;102218.91;5052277;28;21007;-72
2022/10/19 07:52:48;;;;;;;12.00;0.97;;;;;;;12.60;96.89;102221.91;5054038;28;20481;-70
2022/10/19 07:55:14;;;;;;;6.30;0.77;;;;;;;12.58;96.69;102229.53;5053645;28;20462;-67
2022/10/19 07:57:41;;;;;;;6.47;0.97;;;;;;;12.59;96.81;102222.19;5054713;28;20492;-70
2022/10/19 08:00:09;;;;;;;4.27;0.90;;;;;;;12.69;96.92;102229.50;5052591;28;20876;-70
2022/10/19 08:02:36;;;;;;;6.23;1.10;;;;;;;12.78;96.65;102238.75;5054449;28;20482;-70
2022/10/19 08:05:03;;;;;;;4.17;0.60;;;;;;;12.76;95.85;102239.03;5053457;28;20470;-69
2022/10/19 08:07:32;;;;;;;3.87;0.73;;;;;;;12.71;95.70;102236.31;5054096;28;21024;-70
2022/10/19 08:09:59;;;;;;;6.73;0.80;;;;;;;12.79;96.01;102237.63;5054577;28;20478;-70
2022/10/19 08:12:25;;;;;;;6.50;0.83;;;;;;;12.83;95.56;102242.25;5053700;28;20462;-70
2022/10/19 08:14:53;;;;;;;3.03;0.50;;;;;;;12.71;96.34;102243.66;5054405;28;20446;-70
2022/10/19 08:17:19;;;;;;;3.50;0.70;;;;;;;12.83;96.39;102236.81;5052670;28;20458;-72
2022/10/19 08:19:47;;;;;;;3.10;0.50;;;;;;;12.90;95.07;102243.88;5054576;28;20462;-70
2022/10/19 08:22:15;;;;;;;3.10;0.60;;;;;;;12.97;94.54;102249.84;5052162;28;20482;-70
2022/10/19 08:24:41;;;;;;;3.00;0.50;;;;;;;12.99;94.82;102255.84;5053334;28;20443;-70
2022/10/19 08:27:07;;;;;;;5.13;1.00;;;;;;;12.96;93.20;102257.19;5054193;28;20442;-70
2022/10/19 08:29:34;;;;;;;4.43;1.03;;;;;;;13.01;92.66;102261.78;5053928;28;20465;-70
2022/10/19 08:32:00;;;;;;;3.50;0.70;;;;;;;12.98;92.62;102263.19;5053959;28;20496;-70
2022/10/19 08:34:27;;;;;;;3.87;0.93;;;;;;;13.09;91.12;102259.31;5053982;28;20487;-70
2022/10/19 08:36:54;;;;;;;7.43;0.87;;;;;;;13.09;91.73;102256.59;5053921;28;20453;-70
2022/10/19 08:39:21;;;;;;;4.67;1.00;;;;;;;13.00;91.37;102262.91;5053863;28;20559;-70
2022/10/19 08:42:00;;;;;;;4.67;0.80;;;;;;;12.92;92.43;102261.53;5053347;28;20536;-70
2022/10/19 08:44:58;;;;;;;3.10;0.50;;;;;;;12.99;92.29;102266.72;5053825;28;20437;-70
2022/10/19 09:01:51;;;;;;;4.40;0.77;;;;;;;13.72;88.62;102264.25;5123383;27;20323;-67
2022/10/19 09:04:23;;;;;;;7.93;0.80;;;;;;;13.80;88.78;102263.69;5090668;28;20433;-67
2022/10/19 09:07:00;;;;;;;4.13;0.87;;;;;;;13.76;89.69;102261.78;5083927;22;21004;-71
2022/10/19 09:09:29;;;;;;;7.50;0.90;;;;;;;13.84;88.89;102262.03;5049985;28;20469;-72
2022/10/19 09:12:02;;;;;;;3.23;0.60;;;;;;;13.69;87.48;102262.13;5050225;28;20447;-69
2022/10/19 09:14:32;;;;;;;5.37;1.23;;;;;;;13.65;88.48;102260.25;5049925;28;20923;-72
2022/10/19 09:17:03;;;;;;;3.00;0.50;;;;;;;13.70;89.25;102271.09;5050107;28;20466;-72
2022/10/19 09:19:30;;;;;;;3.40;0.60;;;;;;;13.80;88.49;102271.84;5050109;28;20427;-72
2022/10/19 09:22:01;;;;;;;3.77;0.90;;;;;;;13.83;88.93;102265.03;5049774;28;20940;-71
2022/10/19 09:24:31;;;;;;;6.50;1.13;;;;;;;13.89;88.66;102272.88;5050093;28;20423;-70
2022/10/19 09:27:00;;;;;;;5.70;1.20;;;;;;;13.79;88.90;102272.13;5049883;28;20489;-71
2022/10/19 09:29:33;;;;;;;4.87;0.97;;;;;;;13.94;88.65;102271.22;5049876;28;20528;-71
2022/10/19 09:32:05;;;;;;;3.10;0.60;;;;;;;14.01;87.06;102291.63;5049912;28;20426;-72
2022/10/19 09:34:35;;;;;;;7.20;1.43;;;;;;;14.24;87.61;102281.91;5049877;28;20422;-72
2022/10/19 09:37:02;;;;;;;4.93;0.97;;;;;;;14.34;86.22;102275.56;5049784;28;20470;-72
2022/10/19 09:39:30;;;;;;;4.83;1.20;;;;;;;14.24;82.58;102281.13;5049747;28;20496;-72
2022/10/19 09:41:59;;;;;;;9.60;0.73;;;;;;;13.98;83.45;102285.91;5049705;28;20453;-72
2022/10/19 09:44:27;;;;;;;3.23;0.70;;;;;;;13.91;84.67;102285.44;5049388;28;20952;-72
2022/10/19 09:47:02;;;;;;;3.70;0.90;;;;;;;13.92;85.47;102289.78;5049536;28;20469;-72
2022/10/19 09:49:48;;;;;;;3.00;0.57;;;;;;;13.85;85.69;102287.34;5049570;28;20516;-71
2022/10/19 09:52:32;;;;;;;3.93;0.67;;;;;;;13.95;86.93;102297.41;5049564;28;20810;-71
2022/10/19 09:55:01;;;;;;;5.70;1.10;;;;;;;13.86;88.06;102302.63;5049079;28;20909;-71
2022/10/19 09:57:28;;;;;;;3.43;0.70;;;;;;;13.84;89.13;102296.63;5049418;28;20450;-71
2022/10/19 09:59:55;;;;;;;3.30;0.70;;;;;;;13.96;88.67;102301.75;5049324;28;20441;-71
2022/10/19 10:02:28;;;;;;;3.40;0.73;;;;;;;13.95;86.20;102306.38;5037940;28;20456;-71
2022/10/19 10:05:02;;;;;;;4.43;0.70;;;;;;;14.17;86.76;102302.44;5036054;28;20439;-71
2022/10/19 10:07:35;;;;;;;4.80;0.80;;;;;;;14.50;87.07;102301.66;5036027;28;20438;-71
2022/10/19 10:10:02;;;;;;;3.17;0.63;;;;;;;14.72;85.34;102308.56;5035867;28;20490;-71
2022/10/19 10:12:28;;;;;;;4.83;0.70;;;;;;;14.92;83.58;102302.09;5035804;28;20450;-71
2022/10/19 10:14:55;;;;;;;4.57;0.60;;;;;;;14.97;82.62;102296.63;5035524;28;21022;-71
2022/10/19 10:17:28;;;;;;;3.50;0.80;;;;;;;14.69;78.16;102299.03;5035783;28;20439;-71
2022/10/19 10:20:26;;;;;;;4.07;0.63;;;;;;;14.68;80.37;102305.59;5035748;28;20428;-71
2022/10/19 10:22:57;;;;;;;3.77;0.93;;;;;;;14.67;81.10;102295.78;5035656;28;20591;-71
2022/10/19 10:25:27;;;;;;;3.33;0.60;;;;;;;14.63;80.39;102305.66;5035509;28;20546;-71
2022/10/19 10:27:56;;;;;;;4.20;0.70;;;;;;;14.59;80.07;102302.66;5035482;28;20949;-71
2022/10/19 10:30:22;;;;;;;4.87;1.00;;;;;;;14.61;78.87;102313.31;5035491;28;20487;-71
2022/10/19 10:32:52;;;;;;;3.60;0.70;;;;;;;14.57;76.10;102317.72;5035443;28;20539;-71
2022/10/19 10:35:24;;;;;;;3.40;0.53;;;;;;;14.60;74.74;102314.38;5035444;28;20509;-71
2022/10/19 10:37:51;;;;;;;4.60;0.57;;;;;;;14.61;75.57;102314.13;5035480;28;20458;-71
2022/10/19 10:40:22;;;;;;;4.80;0.77;;;;;;;14.87;76.80;102306.53;5035417;28;20443;-70
2022/10/19 10:42:51;;;;;;;3.43;0.80;;;;;;;15.01;68.89;102316.78;5035331;28;20490;-71
2022/10/19 10:45:22;;;;;;;6.00;0.77;;;;;;;15.00;70.40;102310.47;5035635;28;20521;-72
2022/10/19 10:47:49;;;;;;;3.40;0.70;;;;;;;14.98;72.00;102314.59;5035443;28;20424;-71
2022/10/19 10:50:22;;;;;;;3.50;0.53;;;;;;;14.79;69.88;102320.78;5035163;28;20533;-70
2022/10/19 10:53:00;;;;;;;2.90;0.50;;;;;;;14.71;66.07;102305.03;5035247;28;20458;-72
2022/10/19 10:55:27;;;;;;;3.33;0.83;;;;;;;14.87;68.00;102306.53;5035110;28;20801;-71
2022/10/19 10:58:06;;;;;;;3.20;0.50;;;;;;;14.92;68.10;102313.00;5035191;28;20449;-72
2022/10/19 11:00:34;;;;;;;5.10;0.80;;;;;;;15.18;67.04;102308.91;5034778;28;20916;-71
2022/10/19 11:03:06;;;;;;;5.40;0.80;;;;;;;15.80;62.84;102307.09;5034973;28;20443;-71
2022/10/19 11:05:39;;;;;;;2.80;0.40;;;;;;;17.05;60.28;102303.78;5034730;28;20502;-71
2022/10/19 11:08:17;;;;;;;3.50;0.70;;;;;;;18.28;55.12;102312.97;5034930;28;20435;-71
2022/10/19 11:10:51;;;;;;;5.30;0.60;;;;;;;18.94;50.59;102309.69;5034777;28;20470;-71
2022/10/19 11:13:24;;;;;;;2.80;0.40;;;;;;;19.78;49.30;102315.00;5033859;28;20459;-71
2022/10/19 11:15:54;;;;;;;3.23;0.50;;;;;;;20.22;48.63;102318.59;5034763;28;20463;-71
2022/10/19 11:18:25;;;;;;;3.00;0.60;;;;;;;20.17;47.38;102318.78;5034799;28;20455;-71
2022/10/19 11:21:02;;;;;;;4.07;0.60;;;;;;;19.54;50.04;102314.63;5034355;28;20901;-71
2022/10/19 11:23:51;;;;;;;4.13;0.57;;;;;;;18.70;52.71;102308.13;5034686;28;20468;-71
2022/10/19 11:26:34;;;;;;;3.10;0.60;;;;;;;17.83;51.97;102301.91;5034466;28;20467;-71
2022/10/19 11:29:16;;;;;;;3.00;0.50;;;;;;;18.60;52.92;102309.16;5034400;28;20430;-71
2022/10/19 11:31:46;;;;;;;2.87;0.50;;;;;;;18.47;53.86;102301.00;5034334;28;20467;-72
2022/10/19 11:34:35;;;;;;;3.63;0.50;;;;;;;17.65;54.57;102306.38;5033978;28;20443;-72
2022/10/19 11:37:17;;;;;;;3.07;0.50;;;;;;;17.20;57.46;102294.44;5034181;28;20498;-71
2022/10/19 11:39:59;;;;;;;3.20;0.53;;;;;;;16.52;56.71;102292.38;5034209;28;20477;-71
2022/10/19 11:42:40;;;;;;;5.20;0.60;;;;;;;16.30;57.05;102291.09;5034236;28;20538;-71
2022/10/19 11:45:16;;;;;;;2.90;0.50;;;;;;;16.19;59.43;102295.06;5032944;28;20455;-71